aviador You're here:

ZBAA Decoded Metar

BEIJING in CHINA
Report Time2017-05-30 11:00:00
UTC Time2017-05-30 11:12:03
Flight Rules vfr VFR
Wind160° at 6 kt
W.Decomp.*RWY 18: 5.8 kt HW 1.5 kt LCW
RWY 19: 5.5 kt HW 2.4 kt LCW
W.Rank160° ranks 8
Current wind is above 160° avg. (5.1)
Visibility9999 m
Phenomena:N/A
Clouds:N/A
Expected CloudBase > 4,000 ft AGL from Temp-Dew spread
CeilingNone
Temp26°C (ISA +11)
Dew Point16°C (54% RH)
AAT25.8°C
QNH1003 hPa
Density Alt1,972 ft
Elevation98 ft
Report Wrong Elevation
Raw Report
ZBAA 301100Z 16003MPS CAVOK 26/16 Q1003 NOSIG=

Extra information for ZBAA:More info

Metar Taf Metar & Taf Last 4 Metars F.Rules Stats Wind Profile Meteogram Temp Stats Airport Information Weather charts Add Link Nearby VenuesMetar ALERT Operation Metar Decoded Social comments